LESO Airport Information

Runway Information
Runway 04 Length 5755 ft width 148 ft
Elevation 10 ft Threshold 0 ft Heading 39
Runway 22 Length 5755 ft Width 148 ft
Elevation 15 ft Threshold 0 ft Heading 219
Airport Frequencies
Type TWR Name SAN SEBAST Frequency 119.85 MHZ
Airport Navaids
Type NDB-DME Name San Sebastian Frequency 328 KHZ
Type VOR-DME Name San Sebastian Frequency 117900 KHZ
Airport Weather Information & NOTAM
ADDS - METARS form results

(1427 UTC 14 June 2021)
Data provider http://aviationweather.gov/metar/data/
 
METAR text: LESO 141400Z 30007KT 240V360 CAVOK 26/19 Q1020
Conditions at: LESO (SAN SEBASTIAN/FU, ES) observed 1400 UTC 14 June 2021
Temperature: 26.0°C (79°F)
Dewpoint: 19.0°C (66°F) [RH = 65%]
Pressure (altimeter): 30.12 inches Hg (1020.0 mb)
Winds: from the WNW (300 degrees) at 8 MPH (7 knots; 3.6 m/s)
Visibility: 6 or more miles (10+ km)
Ceiling: ceiling and visibility are OK
Clouds: unknown
Weather: no significant weather observed at this time

METAR text: LESO 141330Z 01007KT 290V060 CAVOK 26/19 Q1020
Conditions at: LESO (SAN SEBASTIAN/FU, ES) observed 1330 UTC 14 June 2021
Temperature: 26.0°C (79°F)
Dewpoint: 19.0°C (66°F) [RH = 65%]
Pressure (altimeter): 30.12 inches Hg (1020.0 mb)
Winds: from the N (10 degrees) at 8 MPH (7 knots; 3.6 m/s)
Visibility: 6 or more miles (10+ km)
Ceiling: ceiling and visibility are OK
Clouds: unknown
Weather: no significant weather observed at this time

Forecast for: LESO (SAN SEBASTIAN/FU, ES)
Text: TAF LESO 141100Z 1412/1512 24005KT CAVOK TX27/1415Z TN18/1505Z
Forecast period: 1200 UTC 14 June 2021 to 1200 UTC 15 June 2021
Forecast type: FROM: standard forecast or significant change
Winds: from the WSW (240 degrees) at 6 MPH (5 knots; 2.6 m/s)
Visibility: 6 or more miles (10+ km)
Ceiling: unknown
Clouds: missing
Weather: no significant weather forecast for this period
Text: PROB40
Forecast period: 1200 to 1600 UTC 14 June 2021
Forecast type: TEMPORARY: The following changes expected for less than half the time period
Winds: from the N (350 degrees) at 12 MPH (10 knots; 5.1 m/s)
Visibility: missing
Ceiling: unknown
Clouds: missing
Weather: no significant weather forecast for this period
Text: TEMPO 1412/1416 35010KT
Forecast period: 0300 to 0700 UTC 15 June 2021
Forecast type: TEMPORARY: The following changes expected for less than half the time period
Visibility: 1.86 miles (2.99 km)
Ceiling: 1000 feet AGL
Clouds: broken clouds at 1000 feet AGL
Weather: BR  (mist)